createdAt,value
2022-08-14T00:02:21.627Z,1.77
2022-08-14T00:04:54.268Z,1.63
2022-08-14T00:07:21.226Z,1.73
2022-08-14T00:09:56.182Z,1.73
2022-08-14T00:12:47.973Z,1.58
2022-08-14T00:15:43.744Z,1.50
2022-08-14T00:18:30.408Z,1.70
2022-08-14T00:21:04.987Z,1.70
2022-08-14T00:23:39.088Z,1.83
2022-08-14T00:26:21.478Z,1.88
2022-08-14T00:28:51.602Z,1.75
2022-08-14T00:31:20.910Z,1.90
2022-08-14T00:34:37.090Z,1.92
2022-08-14T00:36:53.133Z,1.63
2022-08-14T00:39:23.966Z,1.58
2022-08-14T00:41:55.187Z,1.55
2022-08-14T00:44:32.328Z,1.73
2022-08-14T00:47:10.972Z,1.63
2022-08-14T00:49:43.137Z,1.70
2022-08-14T00:52:23.168Z,1.58
2022-08-14T00:54:57.868Z,1.65
2022-08-14T00:57:30.314Z,1.60
2022-08-14T01:00:01.351Z,1.73
2022-08-14T01:02:31.930Z,1.60
2022-08-14T01:05:00.888Z,1.52
2022-08-14T01:07:47.438Z,1.48
2022-08-14T01:10:20.203Z,2.20
2022-08-14T01:12:50.494Z,2.70
2022-08-14T01:15:21.395Z,1.75
2022-08-14T01:18:19.660Z,1.50
2022-08-14T01:21:03.848Z,1.48
2022-08-14T01:23:51.357Z,1.60
2022-08-14T01:26:35.036Z,1.95
2022-08-14T01:29:06.642Z,1.80
2022-08-14T01:31:40.491Z,1.55
2022-08-14T01:35:19.977Z,1.60
2022-08-14T01:37:01.988Z,1.65
2022-08-14T01:39:28.996Z,1.63
2022-08-14T01:42:01.027Z,1.58
2022-08-14T01:44:34.030Z,1.70
2022-08-14T01:47:16.446Z,1.70
2022-08-14T01:49:59.408Z,2.10
2022-08-14T01:52:58.394Z,1.80
2022-08-14T01:55:32.321Z,2.13
2022-08-14T01:58:19.456Z,2.00
2022-08-14T02:00:55.347Z,1.50
2022-08-14T02:03:35.294Z,2.00
2022-08-14T02:06:33.257Z,1.75
2022-08-14T02:08:55.221Z,1.80
2022-08-14T02:11:25.895Z,2.00
2022-08-14T02:14:00.105Z,2.05
2022-08-14T02:19:14.164Z,1.75
2022-08-14T02:21:50.468Z,1.80
2022-08-14T02:24:39.467Z,1.75
2022-08-14T02:28:24.311Z,1.65
2022-08-14T02:30:08.532Z,2.00
2022-08-14T02:32:37.227Z,1.55
2022-08-14T02:35:18.688Z,1.70
2022-08-14T02:37:50.119Z,1.80
2022-08-14T02:40:32.213Z,1.60
2022-08-14T02:43:05.402Z,1.67
2022-08-14T02:45:38.832Z,1.77
2022-08-14T02:49:04.606Z,1.67
2022-08-14T02:51:01.421Z,1.70
2022-08-14T02:53:31.272Z,2.10
2022-08-14T02:56:10.112Z,2.10
2022-08-14T02:58:56.839Z,2.00
2022-08-14T03:01:31.217Z,1.73
2022-08-14T03:04:12.206Z,1.80
2022-08-14T03:07:06.394Z,2.25
2022-08-14T03:10:24.379Z,1.70
2022-08-14T03:12:31.063Z,1.95
2022-08-14T03:15:03.113Z,1.67
2022-08-14T03:17:32.026Z,1.80
2022-08-14T03:20:12.192Z,2.05
2022-08-14T03:22:42.111Z,2.03
2022-08-14T03:25:11.302Z,1.77
2022-08-14T03:27:48.569Z,2.20
2022-08-14T03:30:39.029Z,1.88
2022-08-14T03:33:11.279Z,1.75
2022-08-14T03:35:59.742Z,1.80
2022-08-14T03:39:15.184Z,1.90
2022-08-14T03:41:24.148Z,1.83
2022-08-14T03:44:01.173Z,2.10
2022-08-14T03:46:52.856Z,1.92
2022-08-14T03:49:29.441Z,2.08
2022-08-14T03:52:00.718Z,1.80
2022-08-14T03:54:29.305Z,1.70
2022-08-14T03:57:02.416Z,1.77
2022-08-14T03:59:33.982Z,1.67
2022-08-14T04:02:04.461Z,1.77
2022-08-14T04:04:33.612Z,1.90
2022-08-14T04:07:01.422Z,1.95
2022-08-14T04:09:30.924Z,1.90
2022-08-14T04:12:02.101Z,2.05
2022-08-14T04:14:33.591Z,1.83
2022-08-14T04:17:04.834Z,1.95
2022-08-14T04:19:37.536Z,2.00
2022-08-14T04:22:06.937Z,1.98
2022-08-14T04:24:39.070Z,1.83
2022-08-14T04:27:13.386Z,1.92
2022-08-14T04:29:45.263Z,1.90
2022-08-14T04:33:02.840Z,1.95
2022-08-14T04:35:01.548Z,2.00
2022-08-14T04:37:55.622Z,1.83
2022-08-14T04:40:41.193Z,2.10
2022-08-14T04:43:38.623Z,1.80
2022-08-14T04:46:07.219Z,1.80
2022-08-14T04:48:38.855Z,2.08
2022-08-14T04:51:13.571Z,2.03
2022-08-14T04:53:46.161Z,2.07
2022-08-14T04:56:31.049Z,1.98
2022-08-14T04:59:10.230Z,1.90
2022-08-14T05:01:48.887Z,1.80
2022-08-14T05:04:21.886Z,1.73
2022-08-14T05:06:53.517Z,1.98
2022-08-14T05:12:39.716Z,1.77
2022-08-14T05:14:54.780Z,2.13
2022-08-14T05:17:28.833Z,1.80
2022-08-14T05:21:55.228Z,2.00
2022-08-14T05:23:03.520Z,4.03
2022-08-14T05:25:34.141Z,5.72
2022-08-14T05:28:21.086Z,3.78
2022-08-14T05:30:54.033Z,2.90
2022-08-14T05:33:24.352Z,2.33
2022-08-14T05:36:01.035Z,2.05
2022-08-14T05:38:35.948Z,3.40
2022-08-14T05:41:17.781Z,2.30
2022-08-14T05:43:51.156Z,2.33
2022-08-14T05:46:23.770Z,2.20
2022-08-14T05:48:57.834Z,2.15
2022-08-14T05:51:28.265Z,2.00
2022-08-14T05:54:12.829Z,1.95
2022-08-14T05:56:48.901Z,1.85
2022-08-14T05:59:18.607Z,1.92
2022-08-14T06:01:46.740Z,1.90
2022-08-14T06:04:17.516Z,1.98
2022-08-14T06:06:46.524Z,1.85
2022-08-14T06:09:14.188Z,2.05
2022-08-14T06:11:41.161Z,2.15
2022-08-14T06:14:20.597Z,1.77
2022-08-14T06:16:49.056Z,2.30
2022-08-14T06:19:19.138Z,2.53
2022-08-14T06:21:53.160Z,2.35
2022-08-14T06:24:26.106Z,2.30
2022-08-14T06:26:55.142Z,3.00
2022-08-14T06:29:32.183Z,2.30
2022-08-14T06:32:38.634Z,2.13
2022-08-14T06:35:09.624Z,2.15
2022-08-14T06:37:58.958Z,2.15
2022-08-14T06:40:34.436Z,2.00
2022-08-14T06:43:11.410Z,2.13
2022-08-14T06:45:53.954Z,2.10
2022-08-14T06:48:25.010Z,1.70
2022-08-14T06:50:54.160Z,2.08
2022-08-14T06:53:22.204Z,2.08
2022-08-14T06:56:01.114Z,1.75
2022-08-14T06:58:30.718Z,1.80
2022-08-14T07:01:26.814Z,2.00
2022-08-14T07:04:22.672Z,1.73
2022-08-14T07:06:59.336Z,1.92
2022-08-14T07:09:40.474Z,1.80
2022-08-14T07:12:55.083Z,1.98
2022-08-14T07:15:01.003Z,1.75
2022-08-14T07:17:28.676Z,1.52
2022-08-14T07:20:01.998Z,2.13
2022-08-14T07:22:33.114Z,2.90
2022-08-14T07:25:16.708Z,2.00
2022-08-14T07:27:48.623Z,1.88
2022-08-14T07:30:34.344Z,2.03
2022-08-14T07:33:03.537Z,1.98
2022-08-14T07:35:42.950Z,1.95
2022-08-14T07:38:35.728Z,1.70
2022-08-14T07:41:06.976Z,1.70
2022-08-14T07:43:47.475Z,1.80
2022-08-14T07:46:29.295Z,1.70
2022-08-14T07:49:02.592Z,1.83
2022-08-14T07:51:34.235Z,1.77
2022-08-14T07:54:11.324Z,1.58
2022-08-14T07:56:48.164Z,1.50
2022-08-14T07:59:26.122Z,1.40
2022-08-14T08:02:19.626Z,1.52
2022-08-14T08:04:58.785Z,1.40
2022-08-14T08:07:31.144Z,1.55
2022-08-14T08:10:01.099Z,1.40
2022-08-14T08:15:02.969Z,1.50
2022-08-14T08:17:53.382Z,1.35
2022-08-14T08:20:30.162Z,1.27
2022-08-14T08:25:44.271Z,1.30
2022-08-14T08:28:25.138Z,1.10
2022-08-14T08:31:05.755Z,1.30
2022-08-14T08:33:38.527Z,1.17
2022-08-14T08:36:12.576Z,1.25
2022-08-14T08:39:16.410Z,1.10
2022-08-14T08:41:50.448Z,1.27
2022-08-14T08:44:31.593Z,1.40
2022-08-14T08:47:06.573Z,1.20
2022-08-14T08:49:48.678Z,1.15
2022-08-14T08:52:30.848Z,1.10
2022-08-14T08:55:04.485Z,1.13
2022-08-14T08:57:37.454Z,1.27
2022-08-14T09:00:27.150Z,1.40
2022-08-14T09:03:12.965Z,1.33
2022-08-14T09:05:59.459Z,1.20
2022-08-14T09:08:33.347Z,1.30
2022-08-14T09:11:19.892Z,1.30
2022-08-14T09:13:53.485Z,1.27
2022-08-14T09:16:25.810Z,1.08
2022-08-14T09:18:55.943Z,1.30
2022-08-14T09:21:31.193Z,0.95
2022-08-14T09:24:28.156Z,1.00
2022-08-14T09:26:48.871Z,1.00
2022-08-14T09:29:17.849Z,1.17
2022-08-14T09:31:54.601Z,1.27
2022-08-14T09:34:30.070Z,1.30
2022-08-14T09:37:34.857Z,1.00
2022-08-14T09:40:20.580Z,1.17
2022-08-14T09:43:22.393Z,0.85
2022-08-14T09:45:53.147Z,0.98
2022-08-14T09:48:29.376Z,0.90
2022-08-14T09:54:12.999Z,0.70
2022-08-14T09:56:30.870Z,0.90
2022-08-14T09:59:16.186Z,1.02
2022-08-14T10:01:53.113Z,1.10
2022-08-14T10:04:33.572Z,0.90
2022-08-14T10:07:10.162Z,0.90
2022-08-14T10:09:59.589Z,0.80
2022-08-14T10:12:48.597Z,0.95
2022-08-14T10:15:23.940Z,0.93
2022-08-14T10:18:09.422Z,0.90
2022-08-14T10:20:55.579Z,0.85
2022-08-14T10:23:27.089Z,1.00
2022-08-14T10:26:09.601Z,1.27
2022-08-14T10:29:20.192Z,1.00
2022-08-14T10:31:59.485Z,0.98
2022-08-14T10:34:36.659Z,0.90
2022-08-14T10:37:14.673Z,0.80
2022-08-14T10:40:01.524Z,0.90
2022-08-14T10:42:43.722Z,1.00
2022-08-14T10:45:23.537Z,1.10
2022-08-14T10:48:09.300Z,0.80
2022-08-14T10:50:51.491Z,0.93
2022-08-14T10:53:37.050Z,0.80
2022-08-14T10:56:21.601Z,0.85
2022-08-14T10:59:08.745Z,0.70
2022-08-14T11:01:41.916Z,0.80
2022-08-14T11:04:25.963Z,1.10
2022-08-14T11:06:57.718Z,0.90
2022-08-14T11:09:31.961Z,0.90
2022-08-14T11:12:33.996Z,0.80
2022-08-14T11:14:59.309Z,0.80
2022-08-14T11:17:32.645Z,0.90
2022-08-14T11:20:05.229Z,0.90
2022-08-14T11:22:56.152Z,1.02
2022-08-14T11:25:25.064Z,0.80
2022-08-14T11:28:14.789Z,0.80
2022-08-14T11:30:54.117Z,0.95
2022-08-14T11:33:36.216Z,1.23
2022-08-14T11:36:17.214Z,1.00
2022-08-14T11:38:46.600Z,1.15
2022-08-14T11:41:21.141Z,0.98
2022-08-14T11:43:57.820Z,1.00
2022-08-14T11:46:30.630Z,0.98
2022-08-14T11:49:09.361Z,1.40
2022-08-14T11:51:53.438Z,1.20
2022-08-14T11:54:34.699Z,1.30
2022-08-14T11:57:05.880Z,1.40
2022-08-14T11:59:34.001Z,1.23
2022-08-14T12:03:02.586Z,1.30
2022-08-14T12:05:09.273Z,1.10
2022-08-14T12:07:36.885Z,1.23
2022-08-14T12:10:26.299Z,1.30
2022-08-14T12:12:56.300Z,1.30
2022-08-14T12:15:36.054Z,1.25
2022-08-14T12:18:06.504Z,1.40
2022-08-14T12:20:52.861Z,1.35
2022-08-14T12:23:24.902Z,1.33
2022-08-14T12:26:39.162Z,1.27
2022-08-14T12:29:16.156Z,1.23
2022-08-14T12:31:50.409Z,1.52
2022-08-14T12:34:24.252Z,1.20
2022-08-14T12:37:09.997Z,1.33
2022-08-14T12:39:39.913Z,1.20
2022-08-14T12:42:11.796Z,1.27
2022-08-14T12:44:59.890Z,1.40
2022-08-14T12:47:31.420Z,1.30
2022-08-14T12:49:59.861Z,1.23
2022-08-14T12:52:43.123Z,1.15
2022-08-14T12:55:21.541Z,1.10
2022-08-14T12:57:53.201Z,1.20
2022-08-14T13:00:24.196Z,1.17
2022-08-14T13:02:56.780Z,1.13
2022-08-14T13:05:34.868Z,1.25
2022-08-14T13:08:10.735Z,1.23
2022-08-14T13:10:58.103Z,1.27
2022-08-14T13:13:34.421Z,1.08
2022-08-14T13:16:10.688Z,1.25
2022-08-14T13:18:57.521Z,1.10
2022-08-14T13:21:29.613Z,1.35
2022-08-14T13:24:19.895Z,1.30
2022-08-14T13:26:55.563Z,1.40
2022-08-14T13:29:29.704Z,1.23
2022-08-14T13:31:58.775Z,1.30
2022-08-14T13:34:28.836Z,1.25
2022-08-14T13:37:04.543Z,1.40
2022-08-14T13:39:36.677Z,1.27
2022-08-14T13:42:13.810Z,1.30
2022-08-14T13:44:45.388Z,1.48
2022-08-14T13:47:14.647Z,1.40
2022-08-14T13:49:57.781Z,1.52
2022-08-14T13:52:51.302Z,1.70
2022-08-14T13:55:21.251Z,1.42
2022-08-14T13:58:04.232Z,1.80
2022-08-14T14:00:52.118Z,1.35
2022-08-14T14:03:23.092Z,1.90
2022-08-14T14:05:54.565Z,1.70
2022-08-14T14:08:46.066Z,1.67
2022-08-14T14:11:16.268Z,1.90
2022-08-14T14:13:48.505Z,1.88
2022-08-14T14:16:26.189Z,1.95
2022-08-14T14:19:09.318Z,1.83
2022-08-14T14:21:40.830Z,2.03
2022-08-14T14:24:15.083Z,2.03
2022-08-14T14:26:50.075Z,2.33
2022-08-14T14:29:26.046Z,2.88
2022-08-14T14:31:58.683Z,4.43
2022-08-14T14:34:34.057Z,2.70
2022-08-14T14:37:04.994Z,2.92
2022-08-14T14:39:37.889Z,2.30
2022-08-14T14:42:32.259Z,2.13
2022-08-14T14:45:24.915Z,2.33
2022-08-14T14:47:59.188Z,2.30
2022-08-14T14:50:29.574Z,2.80
2022-08-14T14:53:12.477Z,2.37
2022-08-14T14:56:47.979Z,2.40
2022-08-14T14:58:31.444Z,2.60
2022-08-14T15:00:59.978Z,2.33
2022-08-14T15:03:33.255Z,2.60
2022-08-14T15:06:00.590Z,2.40
2022-08-14T15:08:55.819Z,3.40
2022-08-14T15:11:17.335Z,2.60
2022-08-14T15:13:53.169Z,3.30
2022-08-14T15:16:23.243Z,3.08
2022-08-14T15:18:54.988Z,3.55
2022-08-14T15:21:22.907Z,3.13
2022-08-14T15:23:51.534Z,2.40
2022-08-14T15:26:23.374Z,2.70
2022-08-14T15:29:02.947Z,3.85
2022-08-14T15:31:36.500Z,2.55
2022-08-14T15:34:40.998Z,3.00
2022-08-14T15:37:02.076Z,3.20
2022-08-14T15:39:35.461Z,2.47
2022-08-14T15:42:14.930Z,2.65
2022-08-14T15:44:58.316Z,2.75
2022-08-14T15:47:34.922Z,2.67
2022-08-14T15:50:08.823Z,2.45
2022-08-14T15:52:37.248Z,2.53
2022-08-14T15:55:09.075Z,2.58
2022-08-14T15:57:37.389Z,2.50
2022-08-14T16:00:40.486Z,3.42
2022-08-14T16:03:18.065Z,2.78
2022-08-14T16:05:52.598Z,2.92
2022-08-14T16:08:27.298Z,2.95
2022-08-14T16:10:59.885Z,3.58
2022-08-14T16:13:41.279Z,3.67
2022-08-14T16:16:47.322Z,3.15
2022-08-14T16:19:19.411Z,2.97
2022-08-14T16:22:02.007Z,2.70
2022-08-14T16:25:00.027Z,3.25
2022-08-14T16:27:38.929Z,3.28
2022-08-14T16:30:24.898Z,3.05
2022-08-14T16:32:59.722Z,2.78
2022-08-14T16:35:42.354Z,3.20
2022-08-14T16:38:44.896Z,2.90
2022-08-14T16:41:23.316Z,2.95
2022-08-14T16:44:05.872Z,3.35
2022-08-14T16:46:45.660Z,3.42
2022-08-14T16:49:18.720Z,3.63
2022-08-14T16:51:52.658Z,3.10
2022-08-14T16:54:20.682Z,3.45
2022-08-14T16:57:22.628Z,3.22
2022-08-14T16:59:57.622Z,3.50
2022-08-14T17:03:11.750Z,3.38
2022-08-14T17:05:43.289Z,2.72
2022-08-14T17:08:32.079Z,2.95
2022-08-14T17:11:10.694Z,2.88
2022-08-14T17:13:58.229Z,2.78
2022-08-14T17:16:37.238Z,3.10
2022-08-14T17:19:14.068Z,2.80
2022-08-14T17:21:46.877Z,2.50
2022-08-14T17:24:51.655Z,2.65
2022-08-14T17:27:08.605Z,2.67
2022-08-14T17:29:56.634Z,2.63
2022-08-14T17:32:44.243Z,2.47
2022-08-14T17:35:16.447Z,2.50
2022-08-14T17:37:56.087Z,2.38
2022-08-14T17:40:29.875Z,2.50
2022-08-14T17:43:02.414Z,2.42
2022-08-14T17:45:38.867Z,2.90
2022-08-14T17:49:14.594Z,2.58
2022-08-14T17:51:23.293Z,2.50
2022-08-14T17:54:01.351Z,2.08
2022-08-14T17:56:33.951Z,2.70
2022-08-14T17:59:07.179Z,2.50
2022-08-14T18:01:45.943Z,2.33
2022-08-14T18:04:24.690Z,2.03
2022-08-14T18:07:16.893Z,2.08
2022-08-14T18:09:59.162Z,2.13
2022-08-14T18:12:36.865Z,2.38
2022-08-14T18:15:16.698Z,2.35
2022-08-14T18:21:23.552Z,1.67
2022-08-14T18:23:05.746Z,1.90
2022-08-14T18:25:43.263Z,1.98
2022-08-14T18:28:16.199Z,2.15
2022-08-14T18:30:58.681Z,1.70
2022-08-14T18:33:26.493Z,2.13
2022-08-14T18:35:59.870Z,2.35
2022-08-14T18:38:55.330Z,2.50
2022-08-14T18:41:36.981Z,2.13
2022-08-14T18:44:10.362Z,2.20
2022-08-14T18:47:14.822Z,2.08
2022-08-14T18:49:54.287Z,2.13
2022-08-14T18:52:42.735Z,2.03
2022-08-14T18:55:18.831Z,1.80
2022-08-14T18:57:58.233Z,2.00
2022-08-14T19:00:33.272Z,2.10
2022-08-14T19:03:05.745Z,1.90
2022-08-14T19:05:47.729Z,2.08
2022-08-14T19:08:26.515Z,1.80
2022-08-14T19:11:03.909Z,1.85
2022-08-14T19:13:48.631Z,2.20
2022-08-14T19:16:26.505Z,1.80
2022-08-14T19:19:02.524Z,1.98
2022-08-14T19:21:38.457Z,2.25
2022-08-14T19:24:27.888Z,1.80
2022-08-14T19:27:25.188Z,2.03
2022-08-14T19:30:20.481Z,2.08
2022-08-14T19:32:57.046Z,2.53
2022-08-14T19:35:54.936Z,2.45
2022-08-14T19:39:04.375Z,2.22
2022-08-14T19:41:39.178Z,2.58
2022-08-14T19:44:13.042Z,2.55
2022-08-14T19:47:01.245Z,2.55
2022-08-14T19:50:07.431Z,2.25
2022-08-14T19:52:38.786Z,3.72
2022-08-14T19:55:19.158Z,3.13
2022-08-14T19:57:52.438Z,3.00
2022-08-14T20:00:30.613Z,2.88
2022-08-14T20:03:11.834Z,2.70
2022-08-14T20:05:43.131Z,2.08
2022-08-14T20:10:59.682Z,2.80
2022-08-14T20:12:02.255Z,2.13
2022-08-14T20:14:20.948Z,2.50
2022-08-14T20:17:05.954Z,2.42
2022-08-14T20:19:37.223Z,2.72
2022-08-14T20:22:36.493Z,2.60
2022-08-14T20:24:54.630Z,2.00
2022-08-14T20:27:34.132Z,2.70
2022-08-14T20:30:34.763Z,3.08
2022-08-14T20:33:08.011Z,2.50
2022-08-14T20:35:47.685Z,2.55
2022-08-14T20:38:31.532Z,2.58
2022-08-14T20:41:12.319Z,2.20
2022-08-14T20:44:02.858Z,2.33
2022-08-14T20:46:42.525Z,2.90
2022-08-14T20:49:18.798Z,2.70
2022-08-14T20:51:59.314Z,2.67
2022-08-14T20:54:34.170Z,2.95
2022-08-14T20:57:14.707Z,2.60
2022-08-14T20:59:48.861Z,2.25
2022-08-14T21:02:38.574Z,2.92
2022-08-14T21:05:22.453Z,2.75
2022-08-14T21:08:09.810Z,2.90
2022-08-14T21:10:55.102Z,3.53
2022-08-14T21:14:08.915Z,3.17
2022-08-14T21:16:25.739Z,3.00
2022-08-14T21:19:04.209Z,3.20
2022-08-14T21:21:40.512Z,2.92
2022-08-14T21:24:46.933Z,2.97
2022-08-14T21:27:04.365Z,3.00
2022-08-14T21:29:49.849Z,2.85
2022-08-14T21:32:50.328Z,2.90
2022-08-14T21:35:28.634Z,2.65
2022-08-14T21:40:42.286Z,2.40
2022-08-14T21:43:20.563Z,2.47
2022-08-14T21:45:58.161Z,2.75
2022-08-14T21:48:31.756Z,2.80
2022-08-14T21:51:54.539Z,3.00
2022-08-14T21:54:00.035Z,3.33
2022-08-14T21:56:39.002Z,3.10
2022-08-14T21:59:17.869Z,3.10
2022-08-14T22:02:00.143Z,2.80
2022-08-14T22:04:40.394Z,2.47
2022-08-14T22:07:17.152Z,2.88
2022-08-14T22:09:55.125Z,2.50
2022-08-14T22:12:57.201Z,3.00
2022-08-14T22:15:22.214Z,2.80
2022-08-14T22:17:54.516Z,2.70
2022-08-14T22:20:25.592Z,2.67
2022-08-14T22:22:56.167Z,3.17
2022-08-14T22:25:33.778Z,2.90
2022-08-14T22:28:09.960Z,2.80
2022-08-14T22:30:41.738Z,2.70
2022-08-14T22:33:10.062Z,2.65
2022-08-14T22:35:41.302Z,2.65
2022-08-14T22:38:37.756Z,3.30
2022-08-14T22:41:26.949Z,2.95
2022-08-14T22:43:51.005Z,2.75
2022-08-14T22:46:20.979Z,6.78
2022-08-14T22:48:49.720Z,3.28
2022-08-14T22:51:22.092Z,3.08
2022-08-14T22:53:53.099Z,2.90
2022-08-14T22:56:29.203Z,2.88
2022-08-14T22:59:03.654Z,2.78
2022-08-14T23:01:56.273Z,2.72
2022-08-14T23:04:35.393Z,2.90
2022-08-14T23:07:22.688Z,2.50
2022-08-14T23:10:32.238Z,2.92
2022-08-14T23:12:54.759Z,2.75
2022-08-14T23:15:30.162Z,2.75
2022-08-14T23:17:59.696Z,2.53
2022-08-14T23:20:33.703Z,2.13
2022-08-14T23:23:11.338Z,2.60
2022-08-14T23:25:59.943Z,2.78
2022-08-14T23:28:34.472Z,2.25
2022-08-14T23:31:34.985Z,2.40
2022-08-14T23:34:11.266Z,2.35
2022-08-14T23:36:54.601Z,1.88
2022-08-14T23:39:34.593Z,2.38
2022-08-14T23:42:09.447Z,2.40
2022-08-14T23:44:40.732Z,2.10
2022-08-14T23:47:26.640Z,2.75
2022-08-14T23:50:03.259Z,2.28
2022-08-14T23:52:51.160Z,2.30
2022-08-14T23:55:28.978Z,2.10
2022-08-14T23:57:57.636Z,2.03
